createdAt,value
2018-12-16T00:02:01.980Z,13.70
2018-12-16T00:08:06.800Z,13.80
2018-12-16T00:14:11.524Z,13.43
2018-12-16T00:20:16.997Z,14.13
2018-12-16T00:26:21.767Z,14.30
2018-12-16T00:32:26.707Z,14.17
2018-12-16T00:38:31.565Z,14.83
2018-12-16T00:44:36.617Z,15.10
2018-12-16T00:50:41.602Z,14.77
2018-12-16T00:56:46.676Z,14.53
2018-12-16T01:02:51.598Z,14.73
2018-12-16T01:08:57.160Z,14.87
2018-12-16T01:15:01.955Z,15.90
2018-12-16T01:21:06.715Z,16.50
2018-12-16T01:27:11.547Z,16.43
2018-12-16T01:33:16.504Z,16.53
2018-12-16T01:39:21.686Z,15.93
2018-12-16T01:45:26.539Z,17.50
2018-12-16T01:51:31.907Z,16.20
2018-12-16T01:57:43.682Z,15.40
2018-12-16T02:03:48.599Z,16.17
2018-12-16T02:09:53.959Z,15.93
2018-12-16T02:15:59.097Z,17.57
2018-12-16T02:22:04.096Z,16.77
2018-12-16T02:28:08.954Z,17.90
2018-12-16T02:34:20.250Z,18.07
2018-12-16T02:40:25.112Z,16.57
2018-12-16T02:46:29.918Z,17.40
2018-12-16T02:52:41.799Z,19.00
2018-12-16T02:58:47.378Z,19.10
2018-12-16T03:04:52.421Z,18.07
2018-12-16T03:10:57.285Z,19.40
2018-12-16T03:17:02.136Z,17.83
2018-12-16T03:23:12.120Z,18.73
2018-12-16T03:29:14.439Z,19.07
2018-12-16T03:35:19.498Z,18.37
2018-12-16T03:41:24.230Z,18.87
2018-12-16T03:47:29.155Z,20.10
2018-12-16T03:53:33.907Z,18.37
2018-12-16T03:59:38.794Z,18.43
2018-12-16T04:05:43.636Z,19.90
2018-12-16T04:11:49.282Z,18.80
2018-12-16T04:17:54.106Z,20.10
2018-12-16T04:24:01.968Z,18.17
2018-12-16T04:30:23.730Z,19.67
2018-12-16T04:39:08.517Z,18.77
2018-12-16T04:45:14.235Z,18.53
2018-12-16T04:51:35.892Z,18.40
2018-12-16T04:57:41.103Z,19.40
2018-12-16T05:03:46.141Z,18.37
2018-12-16T05:09:51.111Z,18.93
2018-12-16T05:15:56.760Z,18.50
2018-12-16T05:22:01.982Z,18.30
2018-12-16T05:28:22.845Z,19.37
2018-12-16T05:34:27.541Z,20.43
2018-12-16T05:40:32.426Z,18.67
2018-12-16T05:46:37.931Z,18.63
2018-12-16T05:52:43.055Z,19.53
2018-12-16T05:58:47.821Z,19.37
2018-12-16T06:04:52.866Z,19.33
2018-12-16T06:10:57.643Z,19.63
2018-12-16T06:17:02.489Z,20.17
2018-12-16T06:23:22.065Z,19.80
2018-12-16T06:29:26.828Z,18.47
2018-12-16T06:35:32.182Z,19.43
2018-12-16T06:41:37.358Z,19.90
2018-12-16T06:47:42.548Z,19.33
2018-12-16T06:53:47.858Z,19.70
2018-12-16T06:59:52.678Z,19.97
2018-12-16T07:06:12.126Z,19.40
2018-12-16T07:12:17.126Z,18.77
2018-12-16T07:18:22.229Z,19.63
2018-12-16T07:24:27.188Z,19.10
2018-12-16T07:30:32.132Z,19.23
2018-12-16T07:36:37.028Z,20.07
2018-12-16T07:42:41.831Z,18.57
2018-12-16T07:48:47.273Z,18.63
2018-12-16T07:54:52.889Z,18.77
2018-12-16T08:00:57.899Z,18.57
2018-12-16T08:07:02.978Z,19.47
2018-12-16T08:13:07.811Z,20.07
2018-12-16T08:19:32.783Z,19.13
2018-12-16T08:25:37.687Z,19.67
2018-12-16T08:31:42.751Z,18.67
2018-12-16T08:37:47.542Z,20.80
2018-12-16T08:43:52.330Z,20.20
2018-12-16T08:49:57.337Z,21.10
2018-12-16T08:56:02.145Z,21.87
2018-12-16T09:02:06.949Z,21.73
2018-12-16T09:08:12.036Z,21.63
2018-12-16T09:14:16.860Z,21.77
2018-12-16T09:20:21.750Z,21.23
2018-12-16T09:26:26.558Z,21.10
2018-12-16T09:32:31.726Z,21.60
2018-12-16T09:38:36.478Z,21.63
2018-12-16T09:44:59.355Z,22.43
2018-12-16T09:51:04.213Z,22.73
2018-12-16T09:57:09.246Z,22.63
2018-12-16T10:03:37.277Z,23.77
2018-12-16T10:09:42.441Z,23.00
2018-12-16T10:15:47.297Z,23.37
2018-12-16T10:21:52.219Z,23.43
2018-12-16T10:27:57.079Z,23.73
2018-12-16T10:34:01.807Z,23.30
2018-12-16T10:40:08.083Z,25.80
2018-12-16T10:46:13.106Z,24.67
2018-12-16T10:52:18.281Z,24.30
2018-12-16T10:58:23.482Z,23.93
2018-12-16T11:04:28.310Z,25.10
2018-12-16T11:10:33.675Z,23.57
2018-12-16T11:16:38.627Z,24.70
2018-12-16T11:22:43.507Z,24.33
2018-12-16T11:28:48.376Z,25.67
2018-12-16T11:34:53.363Z,25.07
2018-12-16T11:40:58.194Z,25.27
2018-12-16T11:47:02.983Z,24.23
2018-12-16T11:53:08.088Z,25.83
2018-12-16T11:59:12.927Z,24.33
2018-12-16T12:05:18.333Z,25.43
2018-12-16T12:11:23.083Z,24.90
2018-12-16T12:17:28.242Z,24.53
2018-12-16T12:23:33.122Z,26.60
2018-12-16T12:29:37.855Z,25.63
2018-12-16T12:35:43.072Z,26.10
2018-12-16T12:41:47.867Z,25.60
2018-12-16T12:47:52.589Z,26.10
2018-12-16T12:53:57.678Z,25.17
2018-12-16T13:00:02.669Z,28.33
2018-12-16T13:06:07.530Z,27.03
2018-12-16T13:12:12.449Z,27.27
2018-12-16T13:18:17.567Z,25.70
2018-12-16T13:24:22.582Z,27.30
2018-12-16T13:30:27.323Z,27.03
2018-12-16T13:36:32.427Z,26.90
2018-12-16T13:42:37.637Z,25.30
2018-12-16T13:48:42.539Z,28.77
2018-12-16T13:54:47.394Z,24.50
2018-12-16T14:00:52.774Z,25.10
2018-12-16T14:06:57.510Z,25.83
2018-12-16T14:13:02.389Z,26.20
2018-12-16T14:19:07.146Z,27.93
2018-12-16T14:25:12.738Z,25.33
2018-12-16T14:31:17.542Z,25.27
2018-12-16T14:37:22.389Z,24.50
2018-12-16T14:43:27.438Z,24.37
2018-12-16T14:49:32.211Z,25.07
2018-12-16T14:55:36.918Z,23.47
2018-12-16T15:01:42.365Z,24.40
2018-12-16T15:07:47.407Z,23.97
2018-12-16T15:13:52.212Z,25.67
2018-12-16T15:19:57.410Z,23.97
2018-12-16T15:26:02.384Z,24.43
2018-12-16T15:32:07.539Z,23.27
2018-12-16T15:38:12.689Z,29.72
2018-12-16T15:44:17.547Z,23.80
2018-12-16T15:50:22.358Z,22.30
2018-12-16T15:56:27.353Z,22.13
2018-12-16T16:02:32.293Z,22.30
2018-12-16T16:08:40.014Z,22.60
2018-12-16T16:14:44.694Z,22.80
2018-12-16T16:20:49.481Z,23.00
2018-12-16T16:26:54.505Z,21.40
2018-12-16T16:33:02.385Z,22.50
2018-12-16T16:39:08.430Z,23.07
2018-12-16T16:45:13.334Z,22.23
2018-12-16T16:51:18.158Z,22.57
2018-12-16T16:57:22.984Z,22.20
2018-12-16T17:03:27.678Z,22.97
2018-12-16T17:09:32.416Z,22.63
2018-12-16T17:15:37.276Z,22.40
2018-12-16T17:27:44.369Z,22.67
2018-12-16T17:33:49.547Z,21.13
2018-12-16T17:39:54.545Z,22.10
2018-12-16T17:45:59.526Z,20.53
2018-12-16T17:52:04.591Z,21.40
2018-12-16T17:58:09.544Z,21.07
2018-12-16T18:04:14.542Z,22.83
2018-12-16T18:10:19.792Z,35.67
2018-12-16T18:16:25.002Z,22.43
2018-12-16T18:22:30.531Z,21.23
2018-12-16T18:28:36.478Z,21.73
2018-12-16T18:34:41.549Z,21.33
2018-12-16T18:40:46.505Z,20.87
2018-12-16T18:46:51.944Z,21.40
2018-12-16T18:52:56.884Z,22.80
2018-12-16T18:59:01.975Z,22.17
2018-12-16T19:05:07.483Z,22.63
2018-12-16T19:11:12.906Z,21.73
2018-12-16T19:17:17.972Z,21.00
2018-12-16T19:23:23.041Z,20.70
2018-12-16T19:29:27.907Z,21.13
2018-12-16T19:35:32.935Z,19.73
2018-12-16T19:41:38.489Z,20.77
2018-12-16T19:47:49.502Z,20.83
2018-12-16T19:53:50.949Z,19.40
2018-12-16T19:59:56.480Z,18.43
2018-12-16T20:06:07.027Z,20.10
2018-12-16T20:12:12.419Z,19.13
2018-12-16T20:18:17.779Z,20.47
2018-12-16T20:24:23.032Z,18.53
2018-12-16T20:30:28.221Z,18.43
2018-12-16T20:36:33.907Z,16.47
2018-12-16T20:42:38.894Z,18.63
2018-12-16T20:48:44.375Z,18.37
2018-12-16T20:54:49.633Z,17.73
2018-12-16T21:00:54.853Z,16.67
2018-12-16T21:06:59.737Z,16.97
2018-12-16T21:13:09.791Z,17.47
2018-12-16T21:19:15.689Z,16.87
2018-12-16T21:25:20.662Z,16.13
2018-12-16T21:31:30.024Z,15.43
2018-12-16T21:37:39.462Z,14.67
2018-12-16T21:43:44.378Z,15.93
2018-12-16T21:49:49.411Z,15.00
2018-12-16T21:55:54.349Z,14.17
2018-12-16T22:01:59.397Z,14.27
2018-12-16T22:08:04.386Z,14.90
2018-12-16T22:14:09.363Z,13.30
2018-12-16T22:20:15.348Z,13.47
2018-12-16T22:26:20.245Z,13.33
2018-12-16T22:32:25.733Z,12.87
2018-12-16T22:38:30.614Z,13.23
2018-12-16T22:44:36.177Z,12.63
2018-12-16T22:50:41.098Z,13.20
2018-12-16T22:56:45.984Z,13.57
2018-12-16T23:02:50.846Z,13.47
2018-12-16T23:08:56.044Z,13.17
2018-12-16T23:15:01.011Z,13.33
2018-12-16T23:21:06.833Z,12.93
2018-12-16T23:27:11.790Z,13.00
2018-12-16T23:33:16.656Z,13.47
2018-12-16T23:39:22.755Z,13.37
2018-12-16T23:45:27.639Z,12.23
2018-12-16T23:51:32.526Z,12.37
2018-12-16T23:57:38.229Z,12.37
